Time;durP1;ratioP1;P1;durP2;ratioP2;P2;SDS_P1;SDS_P2;PMS_P1;PMS_P2;Temp;Humidity;BMP_temperature;BMP_pressure;BME280_temperature;BME280_humidity;BME280_pressure;Samples;Min_cycle;Max_cycle;Signal;HPM_P1;HPM_P2
2023/06/25 00:02:15;;;;;;;;;8.00;7.75;29.00;55.10;;;;;;111219;1243;49071;-62
2023/06/25 00:04:42;;;;;;;;;7.25;7.25;29.10;55.30;;;;;;111253;1244;49299;-62
2023/06/25 00:07:08;;;;;;;;;8.25;7.25;29.00;55.10;;;;;;111245;1244;53688;-63
2023/06/25 00:09:35;;;;;;;;;9.00;7.00;29.00;55.10;;;;;;111277;1244;45167;-62
2023/06/25 00:12:04;;;;;;;;;7.75;6.00;29.00;55.10;;;;;;111296;1243;49774;-62
2023/06/25 00:14:30;;;;;;;;;8.75;7.25;29.00;55.10;;;;;;111333;1239;49635;-62
2023/06/25 00:16:57;;;;;;;;;7.50;6.50;29.00;55.10;;;;;;111306;1238;54338;-64
2023/06/25 00:19:26;;;;;;;;;7.25;6.25;29.00;55.30;;;;;;111307;1243;45545;-62
2023/06/25 00:21:53;;;;;;;;;8.00;7.00;29.00;55.10;;;;;;111345;1243;50057;-63
2023/06/25 00:24:20;;;;;;;;;9.00;8.25;29.00;54.70;;;;;;111351;1239;48629;-62
2023/06/25 00:26:47;;;;;;;;;7.33;6.33;29.00;55.30;;;;;;111296;1238;53954;-62
2023/06/25 00:29:14;;;;;;;;;7.00;6.25;29.00;55.10;;;;;;111255;1244;44347;-62
2023/06/25 00:31:41;;;;;;;;;6.00;6.00;29.00;55.10;;;;;;111272;1240;48654;-62
2023/06/25 00:34:09;;;;;;;;;8.00;7.00;29.00;55.10;;;;;;111395;1243;49217;-62
2023/06/25 00:36:36;;;;;;;;;7.25;6.25;29.00;55.10;;;;;;111321;1238;54602;-62
2023/06/25 00:39:04;;;;;;;;;8.00;6.75;28.90;55.10;;;;;;111202;1243;44206;-62
2023/06/25 00:41:31;;;;;;;;;8.00;7.00;29.00;55.20;;;;;;111215;1241;49251;-63
2023/06/25 00:43:58;;;;;;;;;8.00;7.00;28.90;55.10;;;;;;111240;1240;49113;-63
2023/06/25 00:46:25;;;;;;;;;7.00;6.33;28.90;55.30;;;;;;111457;1240;54910;-63
2023/06/25 00:48:52;;;;;;;;;8.25;7.50;28.90;55.20;;;;;;111102;1244;44581;-62
2023/06/25 00:51:26;;;;;;;;;8.25;7.00;29.00;55.40;;;;;;111212;1241;49074;-63
2023/06/25 00:53:53;;;;;;;;;7.00;6.00;28.90;55.30;;;;;;111169;1243;48485;-63
2023/06/25 00:56:28;;;;;;;;;9.50;8.25;28.90;55.10;;;;;;111206;1238;53906;-62
2023/06/25 00:59:00;;;;;;;;;8.33;7.33;28.90;55.10;;;;;;111172;1244;44306;-66
2023/06/25 01:01:36;;;;;;;;;9.50;8.75;28.90;55.10;;;;;;111208;1243;50844;-62
2023/06/25 01:04:08;;;;;;;;;8.00;7.00;28.90;55.10;;;;;;111241;1240;49397;-63
2023/06/25 01:06:40;;;;;;;;;7.25;7.00;28.90;55.10;;;;;;111217;1244;54119;-63
2023/06/25 01:09:10;;;;;;;;;8.00;7.33;28.90;55.10;;;;;;111287;1243;44499;-62
2023/06/25 01:11:37;;;;;;;;;7.67;7.00;28.90;55.10;;;;;;111293;1244;48634;-63
2023/06/25 01:14:04;;;;;;;;;7.67;6.67;28.90;55.30;;;;;;111292;1240;50008;-62
2023/06/25 01:16:31;;;;;;;;;9.00;8.00;28.90;55.10;;;;;;111383;1238;53943;-63
2023/06/25 01:19:02;;;;;;;;;8.75;8.00;28.90;55.10;;;;;;111511;1238;45060;-63
2023/06/25 01:21:29;;;;;;;;;7.25;6.25;28.90;55.10;;;;;;111368;1240;49327;-62
2023/06/25 01:23:56;;;;;;;;;8.00;6.25;28.90;55.10;;;;;;111283;1243;49233;-62
2023/06/25 01:26:24;;;;;;;;;8.25;7.00;28.90;55.20;;;;;;111523;1243;53752;-62
2023/06/25 01:28:55;;;;;;;;;7.25;6.25;28.90;55.20;;;;;;111147;1244;45111;-62
2023/06/25 01:31:24;;;;;;;;;9.00;8.25;28.90;55.30;;;;;;111201;1239;48528;-62
2023/06/25 01:33:51;;;;;;;;;7.00;7.00;28.90;55.40;;;;;;111194;1238;49074;-61
2023/06/25 01:36:18;;;;;;;;;7.75;6.00;28.80;55.10;;;;;;111280;1238;54111;-62
2023/06/25 01:38:45;;;;;;;;;8.50;7.75;28.80;55.30;;;;;;111210;1238;45105;-62
2023/06/25 01:41:13;;;;;;;;;8.00;7.00;28.80;55.10;;;;;;111246;1243;49168;-63
2023/06/25 01:43:41;;;;;;;;;9.75;7.75;28.80;55.30;;;;;;111187;1243;48826;-63
2023/06/25 01:46:08;;;;;;;;;8.00;7.00;28.80;55.50;;;;;;111362;1239;53776;-61
2023/06/25 01:48:35;;;;;;;;;7.00;6.00;28.80;55.20;;;;;;111366;1238;45318;-61
2023/06/25 01:51:02;;;;;;;;;7.67;7.00;28.80;55.20;;;;;;111249;1238;48557;-63
2023/06/25 01:53:29;;;;;;;;;7.67;6.67;28.80;55.20;;;;;;111270;1238;49084;-62
2023/06/25 01:55:56;;;;;;;;;7.75;7.25;28.70;55.20;;;;;;111221;1240;53687;-62
2023/06/25 01:58:23;;;;;;;;;7.75;6.75;28.70;55.20;;;;;;111210;1239;44918;-62
2023/06/25 02:00:50;;;;;;;;;7.25;6.25;28.70;55.40;;;;;;111223;1238;50063;-63
2023/06/25 02:03:17;;;;;;;;;8.00;6.00;28.70;55.20;;;;;;111206;1243;48468;-61
2023/06/25 02:05:44;;;;;;;;;7.00;6.25;28.70;55.80;;;;;;111236;1238;53462;-62
2023/06/25 02:08:10;;;;;;;;;8.75;7.25;28.70;55.20;;;;;;111240;1240;44431;-62
2023/06/25 02:10:37;;;;;;;;;7.00;6.00;28.70;55.40;;;;;;111199;1243;49671;-62
2023/06/25 02:13:04;;;;;;;;;10.00;8.00;28.70;55.20;;;;;;111233;1238;49485;-62
2023/06/25 02:15:31;;;;;;;;;8.00;8.00;28.70;55.20;;;;;;111198;1238;54160;-62
2023/06/25 02:17:58;;;;;;;;;7.25;6.25;28.70;55.30;;;;;;111213;1243;44555;-62
2023/06/25 02:20:25;;;;;;;;;7.00;7.00;28.70;55.20;;;;;;111238;1243;48662;-62
2023/06/25 02:22:52;;;;;;;;;8.25;7.00;28.70;55.20;;;;;;111203;1240;49000;-62
2023/06/25 02:25:18;;;;;;;;;8.00;7.00;28.70;55.30;;;;;;111298;1241;53389;-63
2023/06/25 02:27:45;;;;;;;;;7.25;6.25;28.70;55.30;;;;;;111236;1239;44714;-63
2023/06/25 02:30:13;;;;;;;;;8.00;7.00;28.70;55.20;;;;;;111241;1243;48377;-62
2023/06/25 02:32:40;;;;;;;;;8.00;6.00;28.70;55.40;;;;;;111251;1238;48808;-62
2023/06/25 02:35:08;;;;;;;;;8.75;7.75;28.60;55.70;;;;;;111192;1240;54799;-61
2023/06/25 02:37:35;;;;;;;;;7.00;6.25;28.60;55.20;;;;;;111255;1241;44820;-62
2023/06/25 02:40:02;;;;;;;;;6.00;5.00;28.60;55.40;;;;;;111239;1243;49118;-62
2023/06/25 02:42:29;;;;;;;;;7.00;6.00;28.70;55.20;;;;;;111202;1238;48781;-61
2023/06/25 02:44:56;;;;;;;;;9.00;8.00;28.60;55.20;;;;;;111451;1243;53357;-62
2023/06/25 02:47:23;;;;;;;;;10.00;9.00;28.60;55.20;;;;;;111357;1243;44338;-62
2023/06/25 02:49:50;;;;;;;;;8.00;7.25;28.60;55.20;;;;;;111206;1239;50360;-62
2023/06/25 02:52:17;;;;;;;;;7.33;7.00;28.70;55.20;;;;;;111206;1243;49434;-62
2023/06/25 02:54:44;;;;;;;;;9.67;7.00;28.60;55.20;;;;;;111229;1244;54357;-62
2023/06/25 02:57:11;;;;;;;;;8.00;7.00;28.60;55.20;;;;;;111294;1238;45212;-62
2023/06/25 02:59:37;;;;;;;;;8.50;6.75;28.60;55.20;;;;;;111264;1243;48767;-62
2023/06/25 03:02:05;;;;;;;;;6.25;6.00;28.60;55.20;;;;;;111382;1243;49539;-62
2023/06/25 03:04:32;;;;;;;;;9.00;7.00;28.60;55.20;;;;;;111224;1239;53781;-62
2023/06/25 03:06:59;;;;;;;;;7.00;6.00;28.60;55.20;;;;;;111205;1243;44444;-62
2023/06/25 03:09:26;;;;;;;;;8.00;7.00;28.60;55.20;;;;;;111192;1240;50199;-62
2023/06/25 03:11:52;;;;;;;;;7.00;6.50;28.60;55.20;;;;;;111216;1243;48961;-63
2023/06/25 03:14:19;;;;;;;;;10.00;7.67;28.60;55.20;;;;;;111220;1243;53711;-62
2023/06/25 03:16:46;;;;;;;;;8.67;7.67;28.60;55.30;;;;;;111229;1244;44314;-63
2023/06/25 03:19:13;;;;;;;;;7.00;6.00;28.60;54.80;;;;;;111215;1244;49154;-62
2023/06/25 03:21:40;;;;;;;;;7.00;6.00;28.60;55.30;;;;;;111228;1243;49222;-64
2023/06/25 03:24:07;;;;;;;;;8.00;6.00;28.60;55.50;;;;;;111270;1243;54248;-61
2023/06/25 03:26:34;;;;;;;;;8.50;7.75;28.60;55.80;;;;;;111207;1243;45245;-63
2023/06/25 03:29:02;;;;;;;;;7.25;6.25;28.50;55.20;;;;;;111200;1240;49249;-61
2023/06/25 03:31:29;;;;;;;;;8.00;7.00;28.50;55.20;;;;;;111218;1243;49254;-63
2023/06/25 03:33:56;;;;;;;;;8.33;8.00;28.50;54.90;;;;;;111209;1243;53401;-62
2023/06/25 03:36:23;;;;;;;;;10.25;9.25;28.50;55.20;;;;;;111563;1243;44301;-62
2023/06/25 03:38:49;;;;;;;;;10.00;9.00;28.50;55.40;;;;;;111195;1243;49716;-63
2023/06/25 03:41:17;;;;;;;;;8.00;7.75;28.60;55.20;;;;;;111241;1243;49838;-62
2023/06/25 03:43:44;;;;;;;;;8.00;8.00;28.60;55.10;;;;;;111238;1239;54018;-62
2023/06/25 03:46:11;;;;;;;;;8.75;7.75;28.60;55.10;;;;;;111243;1244;45410;-62
2023/06/25 03:48:41;;;;;;;;;8.00;7.00;28.60;55.10;;;;;;111248;1244;49319;-63
2023/06/25 03:51:09;;;;;;;;;7.00;6.25;28.60;55.10;;;;;;111405;1243;48588;-63
2023/06/25 03:53:38;;;;;;;;;7.75;6.75;28.50;55.10;;;;;;111305;1240;53975;-63
2023/06/25 03:56:05;;;;;;;;;7.75;6.25;28.50;55.10;;;;;;111261;1243;45830;-62
2023/06/25 03:58:34;;;;;;;;;8.00;6.25;28.50;55.10;;;;;;111254;1243;49989;-62
2023/06/25 04:01:00;;;;;;;;;8.00;7.00;28.50;55.10;;;;;;111201;1238;49033;-62
2023/06/25 04:03:27;;;;;;;;;10.00;9.00;28.50;55.10;;;;;;111225;1244;53651;-62
2023/06/25 04:05:54;;;;;;;;;8.50;7.50;28.50;55.30;;;;;;111217;1239;44406;-62
2023/06/25 04:08:21;;;;;;;;;7.00;6.00;28.50;55.20;;;;;;111227;1244;48520;-63
2023/06/25 04:10:48;;;;;;;;;8.00;7.00;28.50;55.10;;;;;;111239;1244;48483;-62
2023/06/25 04:13:15;;;;;;;;;7.67;7.00;28.50;55.10;;;;;;111283;1240;53380;-63
2023/06/25 04:15:42;;;;;;;;;7.33;6.33;28.50;55.20;;;;;;111267;1240;44693;-62
2023/06/25 04:18:09;;;;;;;;;8.25;7.25;28.50;55.20;;;;;;111327;1244;49228;-62
2023/06/25 04:20:36;;;;;;;;;8.50;7.50;28.50;55.20;;;;;;111232;1241;48636;-64
2023/06/25 04:23:03;;;;;;;;;7.25;6.25;28.50;55.30;;;;;;111207;1238;53361;-61
2023/06/25 04:25:31;;;;;;;;;7.75;7.75;28.50;55.40;;;;;;111238;1238;45076;-63
2023/06/25 04:27:58;;;;;;;;;8.25;8.25;28.50;55.20;;;;;;111237;1243;49927;-61
2023/06/25 04:30:25;;;;;;;;;7.50;7.25;28.50;55.20;;;;;;111316;1243;49413;-62
2023/06/25 04:32:52;;;;;;;;;8.00;7.00;28.50;55.40;;;;;;111273;1243;53719;-62
2023/06/25 04:35:19;;;;;;;;;9.00;7.00;28.50;55.40;;;;;;111326;1244;44501;-62
2023/06/25 04:37:46;;;;;;;;;10.25;8.00;28.50;55.40;;;;;;111245;1244;48752;-62
2023/06/25 04:40:13;;;;;;;;;8.25;6.25;28.50;55.20;;;;;;111221;1243;49462;-60
2023/06/25 04:42:40;;;;;;;;;8.67;7.33;28.50;55.20;;;;;;111153;1241;54261;-63
2023/06/25 04:45:07;;;;;;;;;8.33;6.33;28.40;55.20;;;;;;111224;1240;44366;-62
2023/06/25 04:47:34;;;;;;;;;8.25;7.25;28.40;55.40;;;;;;111246;1240;48373;-62
2023/06/25 04:50:02;;;;;;;;;7.25;7.00;28.40;55.40;;;;;;111187;1243;48913;-63
2023/06/25 04:52:29;;;;;;;;;9.00;8.00;28.40;55.20;;;;;;111199;1238;53492;-62
2023/06/25 04:54:56;;;;;;;;;7.00;6.25;28.40;55.40;;;;;;111265;1241;44473;-62
2023/06/25 04:57:23;;;;;;;;;8.25;7.25;28.40;55.80;;;;;;111216;1243;49300;-61
2023/06/25 04:59:50;;;;;;;;;8.00;7.25;28.40;55.20;;;;;;111225;1240;49441;-61
2023/06/25 05:02:17;;;;;;;;;9.00;8.00;28.40;55.20;;;;;;111419;1238;53419;-61
2023/06/25 05:04:44;;;;;;;;;7.33;7.00;28.40;55.20;;;;;;111262;1243;44918;-63
2023/06/25 05:07:11;;;;;;;;;7.50;7.00;28.40;55.30;;;;;;111207;1243;50020;-63
2023/06/25 05:09:38;;;;;;;;;8.33;7.00;28.40;55.30;;;;;;111295;1240;49351;-63
2023/06/25 05:12:05;;;;;;;;;8.00;7.00;28.40;55.30;;;;;;111248;1243;53642;-63
2023/06/25 05:14:32;;;;;;;;;7.00;6.00;28.30;55.20;;;;;;111347;1244;45118;-62
2023/06/25 05:16:59;;;;;;;;;7.00;7.00;28.30;55.30;;;;;;111250;1246;48460;-61
2023/06/25 05:19:26;;;;;;;;;8.00;8.00;28.30;55.30;;;;;;111233;1244;48688;-62
2023/06/25 05:21:53;;;;;;;;;8.00;7.00;28.30;55.80;;;;;;111181;1240;53729;-62
2023/06/25 05:24:20;;;;;;;;;8.00;7.00;28.30;55.30;;;;;;111269;1238;44000;-62
2023/06/25 05:26:47;;;;;;;;;7.00;6.50;28.30;55.30;;;;;;111220;1243;49681;-62
2023/06/25 05:29:14;;;;;;;;;7.75;7.00;28.30;55.50;;;;;;111208;1244;48890;-62
2023/06/25 05:31:41;;;;;;;;;8.75;7.00;28.30;55.30;;;;;;111197;1243;54568;-62
2023/06/25 05:34:08;;;;;;;;;9.00;8.00;28.40;55.40;;;;;;111226;1238;44766;-62
2023/06/25 05:36:34;;;;;;;;;7.25;6.50;28.40;55.50;;;;;;111261;1244;49531;-62
2023/06/25 05:39:01;;;;;;;;;7.50;7.00;28.40;55.40;;;;;;111306;1243;48680;-63
2023/06/25 05:41:28;;;;;;;;;9.00;7.00;28.40;55.60;;;;;;111257;1244;54287;-62
2023/06/25 05:43:55;;;;;;;;;9.00;8.00;28.40;55.30;;;;;;111245;1238;44854;-61
2023/06/25 05:46:22;;;;;;;;;7.50;7.00;28.40;55.30;;;;;;111590;1240;48670;-62
2023/06/25 05:48:49;;;;;;;;;6.00;5.33;28.40;55.40;;;;;;111254;1244;48772;-61
2023/06/25 05:51:16;;;;;;;;;7.00;7.00;28.40;55.50;;;;;;111324;1244;54164;-64
2023/06/25 05:53:44;;;;;;;;;8.00;7.67;28.40;55.30;;;;;;111298;1244;45340;-61
2023/06/25 05:56:11;;;;;;;;;8.00;7.75;28.40;55.30;;;;;;111207;1243;49439;-62
2023/06/25 05:58:38;;;;;;;;;7.00;6.00;28.40;55.30;;;;;;111242;1241;49660;-62
2023/06/25 06:01:05;;;;;;;;;8.00;7.00;28.40;55.30;;;;;;111251;1238;53863;-63
2023/06/25 06:03:32;;;;;;;;;8.00;8.00;28.40;55.00;;;;;;111246;1243;45230;-62
2023/06/25 06:06:00;;;;;;;;;8.25;7.00;28.40;55.30;;;;;;111245;1243;49036;-62
2023/06/25 06:08:27;;;;;;;;;7.75;6.75;28.50;55.30;;;;;;111198;1242;49382;-63
2023/06/25 06:10:54;;;;;;;;;8.00;7.00;28.50;55.30;;;;;;111227;1243;53139;-63
2023/06/25 06:13:21;;;;;;;;;8.00;7.00;28.50;55.50;;;;;;111238;1240;44225;-64
2023/06/25 06:15:48;;;;;;;;;8.33;7.33;28.50;55.50;;;;;;111214;1242;48681;-62
2023/06/25 06:18:15;;;;;;;;;7.00;6.25;28.50;55.30;;;;;;111243;1243;48984;-63
2023/06/25 06:20:42;;;;;;;;;7.33;7.00;28.50;55.30;;;;;;111212;1238;53462;-62
2023/06/25 06:23:09;;;;;;;;;8.33;8.00;28.50;55.30;;;;;;111260;1240;44152;-62
2023/06/25 06:25:35;;;;;;;;;9.00;7.00;28.50;55.30;;;;;;111213;1241;49102;-62
2023/06/25 06:28:03;;;;;;;;;7.75;7.00;28.50;55.30;;;;;;111187;1239;48663;-62
2023/06/25 06:30:30;;;;;;;;;7.75;7.00;28.50;55.30;;;;;;111219;1241;53799;-63
2023/06/25 06:32:57;;;;;;;;;8.25;7.00;28.50;55.70;;;;;;111186;1240;44429;-62
2023/06/25 06:35:23;;;;;;;;;8.00;7.25;28.50;55.20;;;;;;111240;1241;49446;-63
2023/06/25 06:37:50;;;;;;;;;6.75;6.50;28.50;55.80;;;;;;111191;1239;49474;-62
2023/06/25 06:40:17;;;;;;;;;6.00;5.00;28.50;55.20;;;;;;111207;1244;53795;-63
2023/06/25 06:42:44;;;;;;;;;6.25;6.00;28.60;55.20;;;;;;111214;1243;44799;-61
2023/06/25 06:45:11;;;;;;;;;6.00;6.00;28.60;55.40;;;;;;111285;1238;49655;-62
2023/06/25 06:47:38;;;;;;;;;7.00;6.00;28.60;55.20;;;;;;111207;1243;48730;-62
2023/06/25 06:50:06;;;;;;;;;6.75;6.00;28.60;55.20;;;;;;111393;1238;53504;-62
2023/06/25 06:52:33;;;;;;;;;7.00;6.00;28.60;55.40;;;;;;111340;1243;44696;-61
2023/06/25 06:55:00;;;;;;;;;7.50;6.00;28.60;55.20;;;;;;111240;1239;48982;-63
2023/06/25 06:57:27;;;;;;;;;7.00;6.00;28.60;54.80;;;;;;111219;1239;49840;-63
2023/06/25 06:59:54;;;;;;;;;8.00;7.00;28.60;55.10;;;;;;111213;1244;53903;-62
2023/06/25 07:02:21;;;;;;;;;7.00;6.00;28.60;55.10;;;;;;111220;1240;44857;-61
2023/06/25 07:04:48;;;;;;;;;8.50;8.00;28.60;55.10;;;;;;111239;1240;49424;-61
2023/06/25 07:07:15;;;;;;;;;8.33;7.00;28.60;55.30;;;;;;111227;1238;49334;-61
2023/06/25 07:09:53;;;;;;;;;7.75;6.00;28.60;55.20;;;;;;111217;1243;53621;-61
2023/06/25 07:12:21;;;;;;;;;7.25;6.25;28.60;55.20;;;;;;111306;1243;44739;-62
2023/06/25 07:14:48;;;;;;;;;6.50;5.25;28.60;55.10;;;;;;111223;1240;49442;-62
2023/06/25 07:17:15;;;;;;;;;7.00;6.00;28.70;55.10;;;;;;111262;1243;48887;-62
2023/06/25 07:19:42;;;;;;;;;8.25;7.25;28.70;55.20;;;;;;111175;1243;53987;-61
2023/06/25 07:22:09;;;;;;;;;8.25;7.00;28.70;55.10;;;;;;111261;1238;45814;-62
2023/06/25 07:24:36;;;;;;;;;7.00;6.00;28.70;55.10;;;;;;111244;1240;49121;-61
2023/06/25 07:27:03;;;;;;;;;6.67;5.00;28.70;55.10;;;;;;111264;1238;48742;-62
2023/06/25 07:29:30;;;;;;;;;8.25;7.25;28.70;55.10;;;;;;111256;1240;54736;-63
2023/06/25 07:31:57;;;;;;;;;6.33;6.00;28.70;55.10;;;;;;111353;1238;45233;-65
2023/06/25 07:34:24;;;;;;;;;6.50;6.00;28.70;55.10;;;;;;111272;1238;48748;-61
2023/06/25 07:36:51;;;;;;;;;8.33;7.67;28.70;55.10;;;;;;111207;1243;48619;-63
2023/06/25 07:39:29;;;;;;;;;8.00;7.25;28.70;55.10;;;;;;111268;1238;53825;-61
2023/06/25 07:41:56;;;;;;;;;8.00;7.00;28.70;55.00;;;;;;111267;1243;44386;-62
2023/06/25 07:44:24;;;;;;;;;7.33;6.67;28.70;55.00;;;;;;111237;1240;49347;-62
2023/06/25 07:46:51;;;;;;;;;7.25;7.25;28.70;55.00;;;;;;111232;1238;49550;-61
2023/06/25 07:49:18;;;;;;;;;7.00;7.00;28.70;55.00;;;;;;111172;1243;54238;-65
2023/06/25 07:51:51;;;;;;;;;7.00;6.50;28.70;55.00;;;;;;111201;1243;45498;-62
2023/06/25 07:54:18;;;;;;;;;7.33;6.33;28.70;55.00;;;;;;111214;1241;49138;-62
2023/06/25 07:56:45;;;;;;;;;7.00;6.50;28.70;55.30;;;;;;111215;1245;49137;-61
2023/06/25 07:59:13;;;;;;;;;6.75;6.00;28.70;55.20;;;;;;111218;1243;54473;-63
2023/06/25 08:01:40;;;;;;;;;7.25;6.25;28.70;55.00;;;;;;111205;1243;44698;-64
2023/06/25 08:04:07;;;;;;;;;6.33;5.67;28.70;55.00;;;;;;111231;1243;50092;-61
2023/06/25 08:06:34;;;;;;;;;6.00;5.00;28.70;55.10;;;;;;111218;1239;49177;-63
2023/06/25 08:09:03;;;;;;;;;6.50;6.00;28.70;55.00;;;;;;111190;1244;53524;-62
2023/06/25 08:11:30;;;;;;;;;10.25;9.00;28.70;55.20;;;;;;111231;1240;44467;-63
2023/06/25 08:13:57;;;;;;;;;7.25;6.75;28.70;55.00;;;;;;111223;1243;49559;-64
2023/06/25 08:16:24;;;;;;;;;7.00;7.00;28.70;55.00;;;;;;111214;1244;50255;-62
2023/06/25 08:18:51;;;;;;;;;7.00;7.00;28.70;55.00;;;;;;111201;1243;53765;-62
2023/06/25 08:21:18;;;;;;;;;8.00;7.00;28.70;55.00;;;;;;111241;1238;44927;-63
2023/06/25 08:23:45;;;;;;;;;8.00;6.25;28.70;55.00;;;;;;111205;1242;48705;-62
2023/06/25 08:26:15;;;;;;;;;7.67;7.00;28.70;55.00;;;;;;111259;1238;49323;-62
2023/06/25 08:28:42;;;;;;;;;8.00;6.00;28.70;55.00;;;;;;111251;1243;54340;-62
2023/06/25 08:31:10;;;;;;;;;8.25;7.75;28.70;55.00;;;;;;111201;1238;44723;-62
2023/06/25 08:33:38;;;;;;;;;6.25;5.50;28.70;55.00;;;;;;111310;1243;49270;-61
2023/06/25 08:36:05;;;;;;;;;7.00;6.00;28.70;55.00;;;;;;111418;1238;49554;-62
2023/06/25 08:38:32;;;;;;;;;7.00;7.00;28.70;55.20;;;;;;111218;1238;54724;-64
2023/06/25 08:41:00;;;;;;;;;7.00;6.00;28.70;55.00;;;;;;111245;1240;44986;-61
2023/06/25 08:43:27;;;;;;;;;6.00;6.00;28.70;55.20;;;;;;111139;1243;48950;-62
2023/06/25 08:45:54;;;;;;;;;7.00;6.00;28.70;55.00;;;;;;111332;1240;49596;-61
2023/06/25 08:48:23;;;;;;;;;6.75;6.00;28.70;54.60;;;;;;111361;1240;53763;-62
2023/06/25 08:51:03;;;;;;;;;7.25;7.25;28.70;55.00;;;;;;111282;1240;44269;-62
2023/06/25 08:53:30;;;;;;;;;7.00;6.00;28.70;55.00;;;;;;111282;1243;48671;-62
2023/06/25 08:55:58;;;;;;;;;7.00;6.00;28.70;55.50;;;;;;111236;1243;49413;-62
2023/06/25 08:58:25;;;;;;;;;7.33;6.67;28.70;55.00;;;;;;111249;1243;54194;-69
2023/06/25 09:00:52;;;;;;;;;7.00;6.00;28.70;55.00;;;;;;111187;1244;45450;-62
2023/06/25 09:03:19;;;;;;;;;7.25;6.25;28.70;55.20;;;;;;111196;1243;48479;-62
2023/06/25 09:05:54;;;;;;;;;7.00;6.00;28.70;55.10;;;;;;111309;1243;49096;-62
2023/06/25 09:08:25;;;;;;;;;6.00;5.25;28.70;55.10;;;;;;111310;1241;54095;-64
2023/06/25 09:10:54;;;;;;;;;7.00;6.00;28.70;55.20;;;;;;111260;1245;45474;-64
2023/06/25 09:13:26;;;;;;;;;9.00;7.00;28.70;55.10;;;;;;111372;1243;48865;-62
2023/06/25 09:16:00;;;;;;;;;7.00;6.25;28.70;55.30;;;;;;111222;1238;49216;-61
2023/06/25 09:18:29;;;;;;;;;7.00;6.25;28.70;55.10;;;;;;111259;1238;54873;-63
2023/06/25 09:21:01;;;;;;;;;6.00;6.00;28.70;55.00;;;;;;111203;1240;44325;-63
2023/06/25 09:23:28;;;;;;;;;7.00;6.00;28.70;55.00;;;;;;111250;1240;49935;-63
2023/06/25 09:25:54;;;;;;;;;10.00;7.00;28.70;55.00;;;;;;111221;1240;48677;-62
2023/06/25 09:28:22;;;;;;;;;6.00;5.00;28.70;55.10;;;;;;111169;1243;53438;-62
2023/06/25 09:30:54;;;;;;;;;7.00;7.00;28.70;55.00;;;;;;111244;1243;44972;-62
2023/06/25 09:33:21;;;;;;;;;7.00;6.50;28.70;55.00;;;;;;111261;1238;48476;-62
2023/06/25 09:35:48;;;;;;;;;7.00;6.67;28.70;55.10;;;;;;111290;1244;50165;-62
2023/06/25 09:38:16;;;;;;;;;7.00;7.00;28.70;55.10;;;;;;111265;1243;53583;-61
2023/06/25 09:40:43;;;;;;;;;7.25;6.50;28.70;55.10;;;;;;111273;1238;45395;-62
2023/06/25 09:43:10;;;;;;;;;8.00;6.00;28.70;55.10;;;;;;111336;1240;49363;-63
2023/06/25 09:45:37;;;;;;;;;6.25;5.50;28.70;55.10;;;;;;111228;1244;48895;-61
2023/06/25 09:48:05;;;;;;;;;7.50;7.00;28.60;55.00;;;;;;111209;1243;53754;-63
2023/06/25 09:50:35;;;;;;;;;7.75;7.00;28.60;55.20;;;;;;111272;1240;44486;-62
2023/06/25 09:53:12;;;;;;;;;8.00;6.00;28.60;55.10;;;;;;111316;1243;49596;-63
2023/06/25 09:55:40;;;;;;;;;6.25;6.00;28.60;55.10;;;;;;111239;1240;49435;-62
2023/06/25 09:58:08;;;;;;;;;6.25;6.00;28.60;55.00;;;;;;111183;1238;54106;-62
2023/06/25 10:00:37;;;;;;;;;7.25;6.25;28.60;55.00;;;;;;111137;1244;44967;-60
2023/06/25 10:03:04;;;;;;;;;9.00;7.00;28.60;55.00;;;;;;111230;1242;49188;-62
2023/06/25 10:05:32;;;;;;;;;6.25;5.25;28.60;55.00;;;;;;111266;1240;49504;-63
2023/06/25 10:07:59;;;;;;;;;7.33;6.33;28.60;55.00;;;;;;111351;1243;53912;-62
2023/06/25 10:10:27;;;;;;;;;8.00;5.25;28.60;55.00;;;;;;111297;1242;45090;-63
2023/06/25 10:12:54;;;;;;;;;8.25;7.25;28.60;55.00;;;;;;111207;1243;49241;-62
2023/06/25 10:15:31;;;;;;;;;6.67;6.00;28.60;55.20;;;;;;111237;1243;49185;-63
2023/06/25 10:18:00;;;;;;;;;7.25;6.25;28.60;55.00;;;;;;111242;1243;53690;-62
2023/06/25 10:20:30;;;;;;;;;7.75;6.75;28.60;55.00;;;;;;111279;1244;45933;-63
2023/06/25 10:23:13;;;;;;;;;7.50;7.25;28.60;55.00;;;;;;111267;1244;49580;-62
2023/06/25 10:25:51;;;;;;;;;6.00;5.00;28.60;55.00;;;;;;111290;1239;48495;-64
2023/06/25 10:28:18;;;;;;;;;6.00;5.50;28.60;55.00;;;;;;111181;1241;53836;-63
2023/06/25 10:30:47;;;;;;;;;7.00;7.00;28.60;54.90;;;;;;111114;1244;44435;-63
2023/06/25 10:33:18;;;;;;;;;7.00;6.00;28.60;55.00;;;;;;111346;1240;49717;-62
2023/06/25 10:35:50;;;;;;;;;6.50;6.00;28.60;55.00;;;;;;111418;1243;49283;-63
2023/06/25 10:38:17;;;;;;;;;7.25;7.00;28.60;55.00;;;;;;111239;1238;54458;-63
2023/06/25 10:40:45;;;;;;;;;8.00;6.00;28.60;55.40;;;;;;111232;1245;45108;-62
2023/06/25 10:43:17;;;;;;;;;8.00;7.00;28.60;55.00;;;;;;111185;1238;49127;-62
2023/06/25 10:45:49;;;;;;;;;6.25;5.25;28.60;55.00;;;;;;111358;1239;49301;-62
2023/06/25 10:48:17;;;;;;;;;6.00;5.50;28.60;55.00;;;;;;111247;1240;54672;-62
2023/06/25 10:50:44;;;;;;;;;8.25;7.00;28.60;55.00;;;;;;111223;1244;44576;-62
2023/06/25 10:53:19;;;;;;;;;7.25;6.75;28.60;55.00;;;;;;111261;1244;49326;-62
2023/06/25 10:55:50;;;;;;;;;6.75;6.25;28.60;55.20;;;;;;111343;1240;49026;-62
2023/06/25 10:58:20;;;;;;;;;10.00;8.00;28.60;54.70;;;;;;111335;1240;53983;-62
2023/06/25 11:00:57;;;;;;;;;7.00;6.00;28.60;55.00;;;;;;111225;1244;44897;-62
2023/06/25 11:03:25;;;;;;;;;9.00;6.75;28.60;55.20;;;;;;111239;1243;50001;-63
2023/06/25 11:05:57;;;;;;;;;7.25;6.00;28.60;55.00;;;;;;111322;1240;48919;-62
2023/06/25 11:08:24;;;;;;;;;7.75;7.00;28.60;55.10;;;;;;111281;1239;53409;-61
2023/06/25 11:10:52;;;;;;;;;6.75;6.50;28.60;55.00;;;;;;111335;1238;44326;-62
2023/06/25 11:13:19;;;;;;;;;6.00;5.00;28.60;55.00;;;;;;111351;1238;49019;-61
2023/06/25 11:15:46;;;;;;;;;7.00;6.00;28.60;55.00;;;;;;111331;1239;49275;-61
2023/06/25 11:18:13;;;;;;;;;6.75;5.75;28.60;55.10;;;;;;111235;1240;54030;-61
2023/06/25 11:20:42;;;;;;;;;8.00;6.67;28.60;55.10;;;;;;111236;1243;44862;-63
2023/06/25 11:23:12;;;;;;;;;7.00;6.00;28.60;55.10;;;;;;111233;1243;49386;-63
2023/06/25 11:25:39;;;;;;;;;7.00;6.00;28.60;55.00;;;;;;111267;1243;50215;-63
2023/06/25 11:28:09;;;;;;;;;8.75;7.00;28.60;55.10;;;;;;111222;1244;54654;-61
2023/06/25 11:30:36;;;;;;;;;7.00;6.00;28.50;55.00;;;;;;111260;1243;44612;-61
2023/06/25 11:33:08;;;;;;;;;8.00;6.33;28.50;55.00;;;;;;111300;1240;48968;-62
2023/06/25 11:35:35;;;;;;;;;6.25;5.25;28.50;55.00;;;;;;111242;1240;49161;-62
2023/06/25 11:38:02;;;;;;;;;7.00;6.00;28.60;55.10;;;;;;111203;1243;54078;-62
2023/06/25 11:40:32;;;;;;;;;10.25;7.25;28.60;54.60;;;;;;111198;1243;44401;-62
2023/06/25 11:42:59;;;;;;;;;8.33;7.33;28.60;55.10;;;;;;111258;1238;49959;-62
2023/06/25 11:45:26;;;;;;;;;7.25;6.25;28.60;55.00;;;;;;111284;1239;48979;-61
2023/06/25 11:47:54;;;;;;;;;8.00;7.00;28.50;55.20;;;;;;111233;1238;54836;-61
2023/06/25 11:50:22;;;;;;;;;8.00;6.75;28.60;55.10;;;;;;111105;1243;135315;-62
2023/06/25 11:52:54;;;;;;;;;7.25;6.50;28.60;55.10;;;;;;111239;1243;48904;-65
2023/06/25 11:55:21;;;;;;;;;8.00;7.00;28.60;55.10;;;;;;111259;1240;49189;-62
2023/06/25 11:57:48;;;;;;;;;8.67;8.00;28.50;55.10;;;;;;111258;1243;53324;-62
2023/06/25 12:00:16;;;;;;;;;6.67;6.33;28.60;55.10;;;;;;111265;1240;44917;-61
2023/06/25 12:02:43;;;;;;;;;6.25;5.50;28.60;55.20;;;;;;111315;1240;50214;-62
2023/06/25 12:05:10;;;;;;;;;7.33;6.00;28.60;55.10;;;;;;111320;1243;50113;-62
2023/06/25 12:07:37;;;;;;;;;6.75;6.00;28.60;55.10;;;;;;111233;1244;54173;-63
2023/06/25 12:10:05;;;;;;;;;8.00;7.00;28.60;55.10;;;;;;111249;1244;44905;-62
2023/06/25 12:12:32;;;;;;;;;8.00;7.00;28.60;55.20;;;;;;111234;1244;48593;-62
2023/06/25 12:14:59;;;;;;;;;9.00;7.00;28.60;55.20;;;;;;111318;1240;49171;-63
2023/06/25 12:17:26;;;;;;;;;6.50;6.00;28.60;55.30;;;;;;111229;1241;54392;-63
2023/06/25 12:19:53;;;;;;;;;7.33;6.33;28.60;55.10;;;;;;111270;1243;44318;-63
2023/06/25 12:22:20;;;;;;;;;6.25;6.00;28.60;54.70;;;;;;111268;1239;49448;-62
2023/06/25 12:24:47;;;;;;;;;7.25;6.00;28.60;55.10;;;;;;111280;1240;49055;-63
2023/06/25 12:27:14;;;;;;;;;9.00;7.00;28.60;55.80;;;;;;111285;1240;54671;-63
2023/06/25 12:29:41;;;;;;;;;6.25;6.00;28.60;55.10;;;;;;111280;1243;44847;-62
2023/06/25 12:32:08;;;;;;;;;9.00;7.25;28.60;55.20;;;;;;111222;1244;49100;-62
2023/06/25 12:34:36;;;;;;;;;7.00;6.00;28.60;55.20;;;;;;111257;1238;49923;-63
2023/06/25 12:37:03;;;;;;;;;7.00;6.00;28.60;55.10;;;;;;111221;1238;53318;-62
2023/06/25 12:39:30;;;;;;;;;7.25;6.25;28.60;55.10;;;;;;111273;1239;44870;-63